Flight Track Log - Related Links

Times and Time Zones

All times are in EDT time to prevent confusion due to time zone crossing. See the SWA4554 flight status page for this flight to view local times or setup timezone preferences in your user account.

Time Position Orientation Groundspeed Altitude Reporting Facility
EDT Latitude Longitude Course Direction KTS MPH feet Rate Location/Type
Sat 08:48:20 PM 28.0333 -82.5333 360° North 175 201 1,900  Level Tampa TRACON
Sat 08:50:19 PM 28.1464 -82.5606 348° North 254 292 6,400 2,652 Climbing Miami Center
Sat 08:51:21 PM 28.2181 -82.6011 333° Northwest 282 325 9,900 3,024 Climbing Miami Center
Sat 08:52:22 PM 28.2928 -82.6450 333° Northwest 302 348 12,600 2,754 Climbing Miami Center
Sat 08:53:23 PM 28.3761 -82.6936 333° Northwest 334 384 15,500 2,754 Climbing Miami Center
Sat 08:54:24 PM 28.4836 -82.7553 333° Northwest 361 415 18,200 2,459 Climbing Miami Center
Sat 08:55:25 PM 28.5789 -82.8097 333° Northwest 378 435 20,500 2,164 Climbing Miami Center
Sat 08:56:26 PM 28.6842 -82.8361 348° North 398 458 22,600 2,049 Climbing Miami Center
Sat 08:57:28 PM 28.7956 -82.8600 349° North 404 465 24,700 1,854 Climbing Miami Center
Sat 08:58:29 PM 28.9114 -82.8878 348° North 420 483 26,400 1,623 Climbing Miami Center
Sat 08:59:30 PM 29.0208 -82.9461 335° Northwest 433 498 28,000 1,475 Climbing Miami Center
Sat 09:00:31 PM 29.1269 -83.0233 328° Northwest 446 513 29,400 1,426 Climbing Miami Center
Sat 09:01:32 PM 29.2356 -83.1025 328° Northwest 458 527 30,900 1,721 Climbing Miami Center
Sat 09:02:33 PM 29.3436 -83.1822 327° Northwest 461 531 32,900 1,746 Climbing Miami Center
Sat 09:03:46 PM 29.4747 -83.2839 326° Northwest 457 526 34,800 1,398 Climbing Jacksonville Center
Sat 09:04:46 PM 29.5789 -83.3606 327° Northwest 457 526 36,000 1,100 Climbing Jacksonville Center
Sat 09:05:46 PM 29.6869 -83.4400 327° Northwest 462 532 37,000 1,000 Climbing Jacksonville Center
Sat 09:06:46 PM 29.7953 -83.5172 328° Northwest 462 532 38,000 504 Climbing Jacksonville Center
Sat 09:07:45 PM 29.9033 -83.5969 327° Northwest 462 532 38,000  Level Jacksonville Center
Sat 09:08:46 PM 30.0136 -83.6769 328° Northwest 462 532 38,000  Level Jacksonville Center
Sat 09:09:45 PM 30.1194 -83.7569 327° Northwest 462 532 38,000  Level Jacksonville Center
Sat 09:10:46 PM 30.2275 -83.8375 327° Northwest 462 532 38,000  Level Jacksonville Center
Sat 09:11:45 PM 30.3356 -83.9156 328° Northwest 462 532 38,000  Level Jacksonville Center
Sat 09:12:46 PM 30.4433 -83.9986 326° Northwest 462 532 38,000  Level Jacksonville Center
Sat 09:13:46 PM 30.5511 -84.0769 328° Northwest 462 532 38,000  Level Jacksonville Center
Sat 09:14:46 PM 30.6528 -84.1581 326° Northwest 451 519 38,000  Level Jacksonville Center
Sat 09:15:46 PM 30.7606 -84.2367 328° Northwest 456 525 38,000  Level Jacksonville Center
Sat 09:16:46 PM 30.8661 -84.3181 327° Northwest 461 531 38,000  Level Jacksonville Center
Sat 09:17:46 PM 30.9739 -84.3972 328° Northwest 461 531 38,000  Level Jacksonville Center
Sat 09:20:15 PM 31.2278 -84.5925 327° Northwest 462 532 38,000  Level Atlanta Center
Sat 09:21:15 PM 31.3464 -84.6833 327° Northwest 462 532 38,000  Level Atlanta Center
Sat 09:22:15 PM 31.4544 -84.7619 328° Northwest 462 532 38,000  Level Atlanta Center
Sat 09:23:15 PM 31.5561 -84.8456 325° Northwest 462 532 38,000  Level Atlanta Center
Sat 09:24:15 PM 31.6619 -84.9244 328° Northwest 457 526 38,000  Level Atlanta Center
Sat 09:25:15 PM 31.7636 -85.0061 326° Northwest 457 526 38,000  Level Atlanta Center
Sat 09:26:15 PM 31.8675 -85.0856 327° Northwest 457 526 38,000  Level Atlanta Center
Sat 09:27:15 PM 31.9753 -85.1628 329° Northwest 452 520 38,000  Level Atlanta Center
Sat 09:28:15 PM 32.0789 -85.2425 327° Northwest 452 520 38,000  Level Atlanta Center
Sat 09:29:15 PM 32.1803 -85.3247 326° Northwest 452 520 38,000  Level Atlanta Center
Sat 09:30:15 PM 32.2900 -85.4050 328° Northwest 452 520 38,000  Level Atlanta Center
Sat 09:31:15 PM 32.3956 -85.4878 326° Northwest 458 527 38,000  Level Atlanta Center
Sat 09:32:15 PM 32.5011 -85.5708 326° Northwest 458 527 38,000  Level Atlanta Center
Sat 09:33:15 PM 32.6064 -85.6539 326° Northwest 458 527 38,000  Level Atlanta Center
Sat 09:34:15 PM 32.7158 -85.7397 327° Northwest 463 533 38,000  Level Atlanta Center
Sat 09:35:15 PM 32.8192 -85.8208 327° Northwest 458 527 38,000  Level Atlanta Center
Sat 09:36:15 PM 32.9244 -85.9072 325° Northwest 458 527 38,000  Level Atlanta Center
Sat 09:37:15 PM 33.0294 -85.9936 325° Northwest 458 527 38,000  Level Atlanta Center
Sat 09:38:15 PM 33.1325 -86.0753 326° Northwest 458 527 38,000  Level Atlanta Center
Sat 09:39:15 PM 33.2375 -86.1597 326° Northwest 463 533 38,000  Level Atlanta Center
Sat 09:40:15 PM 33.3406 -86.2369 328° Northwest 455 524 38,000  Level Atlanta Center
Sat 09:41:15 PM 33.4431 -86.3292 323° Northwest 455 524 38,000  Level Atlanta Center
Sat 09:42:15 PM 33.5461 -86.4117 326° Northwest 455 524 38,000  Level Atlanta Center
Sat 09:43:15 PM 33.6528 -86.5019 325° Northwest 449 517 38,000  Level Atlanta Center
Sat 09:44:15 PM 33.7575 -86.5850 327° Northwest 444 511 38,000  Level Atlanta Center
Sat 09:45:15 PM 33.8600 -86.6681 326° Northwest 444 511 38,000  Level Atlanta Center
Sat 09:46:03 PM 33.9378 -86.7317 326° Northwest 448 516 38,000  Level Memphis Center
Sat 09:47:04 PM 34.0414 -86.8181 325° Northwest 448 516 38,000  Level Memphis Center
Sat 09:48:05 PM 34.1442 -86.9017 326° Northwest 448 516 38,000  Level Memphis Center
Sat 09:49:06 PM 34.2467 -86.9850 326° Northwest 448 516 38,000  Level Memphis Center
Sat 09:50:07 PM 34.3486 -87.0700 325° Northwest 448 516 38,000  Level Memphis Center
Sat 09:51:08 PM 34.4503 -87.1544 326° Northwest 448 516 38,000  Level Memphis Center
Sat 09:52:09 PM 34.5756 -87.2578 326° Northwest 448 516 38,000  Level Memphis Center
Sat 09:53:10 PM 34.6744 -87.3406 325° Northwest 448 516 38,000  Level Memphis Center
Sat 09:54:11 PM 34.7756 -87.4272 325° Northwest 449 517 38,000  Level Memphis Center
Sat 09:55:12 PM 34.8781 -87.5136 325° Northwest 449 517 38,000  Level Memphis Center
Sat 09:56:13 PM 34.9808 -87.5997 326° Northwest 449 517 38,000  Level Memphis Center
Sat 09:57:14 PM 35.0825 -87.6856 325° Northwest 449 517 38,000  Level Memphis Center
Sat 09:58:15 PM 35.1842 -87.7753 324° Northwest 449 517 38,000  Level Memphis Center
Sat 09:59:16 PM 35.2867 -87.8625 325° Northwest 449 517 38,000  Level Memphis Center
Sat 10:00:17 PM 35.4003 -87.9594 325° Northwest 449 517 38,000  Level Memphis Center
Sat 10:01:18 PM 35.5044 -88.0500 325° Northwest 450 518 38,000  Level Memphis Center
Sat 10:02:19 PM 35.6094 -88.1394 325° Northwest 451 519 38,000  Level Memphis Center
Sat 10:03:20 PM 35.7153 -88.2300 325° Northwest 452 520 38,000  Level Memphis Center
Sat 10:04:21 PM 35.8186 -88.3197 325° Northwest 452 520 38,000  Level Memphis Center
Sat 10:05:22 PM 35.9217 -88.4094 325° Northwest 452 520 38,000  Level Memphis Center
Sat 10:06:23 PM 36.0236 -88.4992 325° Northwest 452 520 38,000  Level Memphis Center
Sat 10:07:24 PM 36.1269 -88.5892 325° Northwest 452 520 38,000  Level Memphis Center
Sat 10:08:25 PM 36.2297 -88.6797 325° Northwest 453 521 38,000  Level Memphis Center
Sat 10:09:26 PM 36.3522 -88.7864 325° Northwest 453 521 38,000  Level Memphis Center
Sat 10:10:27 PM 36.4525 -88.8744 325° Northwest 450 518 38,000  Level Memphis Center
Sat 10:11:28 PM 36.5536 -88.9650 324° Northwest 450 518 38,000 -148 Level Memphis Center
Sat 10:12:29 PM 36.6539 -89.0533 325° Northwest 450 518 37,700 -639 Descending Memphis Center
Sat 10:13:30 PM 36.7528 -89.1422 324° Northwest 446 513 36,700 -1,230 Descending Memphis Center
Sat 10:14:31 PM 36.8553 -89.2347 324° Northwest 452 520 35,200 -2,164 Descending Memphis Center
Sat 10:15:32 PM 36.9589 -89.3294 324° Northwest 459 528 32,300 -2,656 Descending Memphis Center
Sat 10:16:33 PM 37.0606 -89.4211 324° Northwest 457 526 29,800 -2,410 Descending Memphis Center
Sat 10:17:34 PM 37.1589 -89.5111 324° Northwest 446 513 27,400 -1,869 Descending Memphis Center
Sat 10:18:35 PM 37.2572 -89.5931 326° Northwest 432 497 26,000 -689 Descending Memphis Center
Sat 10:19:36 PM 37.3881 -89.6597 338° Northwest 422 486 26,000  Level Memphis Center
Sat 10:20:25 PM 37.4783 -89.7050 338° Northwest 427 491 26,000  Level Kansas City Center
Sat 10:21:25 PM 37.5933 -89.7192 354° North 429 494 26,000  Level Kansas City Center
Sat 10:22:27 PM 37.7139 -89.7328 355° North 430 495 26,000 -672 Level Kansas City Center
Sat 10:23:30 PM 37.8356 -89.7478 354° North 436 502 24,600 -1,694 Descending Kansas City Center
Sat 10:24:31 PM 37.9372 -89.8200 331° Northwest 401 461 22,500 -2,083 Descending Kansas City Center
Sat 10:25:31 PM 38.0122 -89.9192 314° West 394 453 20,400 -2,083 Descending Kansas City Center
Sat 10:26:32 PM 38.0931 -90.0231 315° West 387 445 18,300 -2,066 Descending Kansas City Center
Sat 10:27:33 PM 38.1667 -90.0831 327° Northwest 377 434 16,200 -2,262 Descending Kansas City Center
Sat 10:28:34 PM 38.2683 -90.1589 330° Northwest 366 421 13,700 -2,115 Descending Kansas City Center
Sat 10:29:35 PM 38.3489 -90.2161 331° Northwest 335 386 11,900 -1,805 Descending Kansas City Center
Sat 10:30:37 PM 38.4306 -90.2772 330° Northwest 332 382 10,000 -1,475 Descending Kansas City Center
Sat 10:31:37 PM 38.5014 -90.3306 329° Northwest 300 345 8,900 -1,200 Descending Kansas City Center
Sat 10:32:37 PM 38.5669 -90.3783 330° Northwest 274 315 7,600 -1,240 Descending Kansas City Center
Sat 10:33:38 PM 38.6303 -90.4258 330° Northwest 265 305 6,400 -912 Descending Kansas City Center
Sat 10:34:42 PM 38.6939 -90.4725 330° Northwest 255 293 5,700 -720 Descending Kansas City Center
Sat 10:35:43 PM 38.7331 -90.5372 308° West 227 261 4,900 -1,000 Descending Kansas City Center
Sat 10:36:42 PM 38.7908 -90.5503 350° North 237 273 3,700 -1,200 Descending Kansas City Center
Sat 10:37:43 PM 38.8047 -90.4842 75° East 197 227 2,500 -968 Descending Kansas City Center
Sat 10:38:46 PM 38.7833 -90.4403 122° Southeast 148 170 1,700 -726 Descending Kansas City Center
Sat 10:39:47 PM 38.7647 -90.4011 121° Southeast 134 154 1,000 -541 Descending Kansas City Center
Sat 10:40:48 PM 38.7483 -90.3658 121° Southeast 131 151 600 -393 Descending Kansas City Center

Login

Don't have an account? Register now (free) for customized features, flight alerts, and more!